sensor_id;sensor_type;location;lat;lon;timestamp;P1;durP1;ratioP1;P2;durP2;ratioP2
72275;SDS011;61204;49.980;8.358;2022-12-05T00:01:24;24.75;;;14.27;;
72275;SDS011;61204;49.980;8.358;2022-12-05T00:04:11;24.35;;;14.70;;
72275;SDS011;61204;49.980;8.358;2022-12-05T00:06:39;24.10;;;13.32;;
72275;SDS011;61204;49.980;8.358;2022-12-05T00:09:10;23.38;;;13.43;;
72275;SDS011;61204;49.980;8.358;2022-12-05T00:11:38;25.70;;;14.38;;
72275;SDS011;61204;49.980;8.358;2022-12-05T00:14:08;24.13;;;15.48;;
72275;SDS011;61204;49.980;8.358;2022-12-05T00:16:36;23.45;;;14.00;;
72275;SDS011;61204;49.980;8.358;2022-12-05T00:19:05;24.17;;;14.18;;
72275;SDS011;61204;49.980;8.358;2022-12-05T00:21:36;23.75;;;14.15;;
72275;SDS011;61204;49.980;8.358;2022-12-05T00:24:03;24.30;;;14.20;;
72275;SDS011;61204;49.980;8.358;2022-12-05T00:26:32;28.73;;;14.95;;
72275;SDS011;61204;49.980;8.358;2022-12-05T00:28:59;26.27;;;15.07;;
72275;SDS011;61204;49.980;8.358;2022-12-05T00:31:26;25.08;;;13.07;;
72275;SDS011;61204;49.980;8.358;2022-12-05T00:33:53;22.17;;;14.27;;
72275;SDS011;61204;49.980;8.358;2022-12-05T00:36:24;26.70;;;15.20;;
72275;SDS011;61204;49.980;8.358;2022-12-05T00:38:54;26.73;;;15.38;;
72275;SDS011;61204;49.980;8.358;2022-12-05T00:41:21;26.05;;;13.75;;
72275;SDS011;61204;49.980;8.358;2022-12-05T00:43:51;23.20;;;13.68;;
72275;SDS011;61204;49.980;8.358;2022-12-05T00:46:18;23.70;;;13.80;;
72275;SDS011;61204;49.980;8.358;2022-12-05T00:48:49;22.38;;;13.77;;
72275;SDS011;61204;49.980;8.358;2022-12-05T00:51:18;23.83;;;14.00;;
72275;SDS011;61204;49.980;8.358;2022-12-05T00:56:23;22.48;;;14.15;;
72275;SDS011;61204;49.980;8.358;2022-12-05T00:58:51;24.92;;;14.77;;
72275;SDS011;61204;49.980;8.358;2022-12-05T01:01:24;24.65;;;15.80;;
72275;SDS011;61204;49.980;8.358;2022-12-05T01:04:04;21.67;;;14.18;;
72275;SDS011;61204;49.980;8.358;2022-12-05T01:06:34;24.23;;;14.10;;
72275;SDS011;61204;49.980;8.358;2022-12-05T01:09:01;23.73;;;13.13;;
72275;SDS011;61204;49.980;8.358;2022-12-05T01:11:30;21.73;;;13.43;;
72275;SDS011;61204;49.980;8.358;2022-12-05T01:13:57;23.27;;;14.02;;
72275;SDS011;61204;49.980;8.358;2022-12-05T01:16:24;23.92;;;14.48;;
72275;SDS011;61204;49.980;8.358;2022-12-05T01:18:58;25.52;;;14.25;;
72275;SDS011;61204;49.980;8.358;2022-12-05T01:21:29;21.88;;;13.85;;
72275;SDS011;61204;49.980;8.358;2022-12-05T01:23:56;22.35;;;14.00;;
72275;SDS011;61204;49.980;8.358;2022-12-05T01:26:22;22.13;;;13.38;;
72275;SDS011;61204;49.980;8.358;2022-12-05T01:28:48;25.52;;;15.45;;
72275;SDS011;61204;49.980;8.358;2022-12-05T01:33:52;29.40;;;16.77;;
72275;SDS011;61204;49.980;8.358;2022-12-05T01:36:21;20.60;;;13.38;;
72275;SDS011;61204;49.980;8.358;2022-12-05T01:38:48;22.30;;;13.68;;
72275;SDS011;61204;49.980;8.358;2022-12-05T01:41:25;21.05;;;13.50;;
72275;SDS011;61204;49.980;8.358;2022-12-05T01:43:58;20.75;;;14.02;;
72275;SDS011;61204;49.980;8.358;2022-12-05T01:46:31;22.30;;;13.98;;
72275;SDS011;61204;49.980;8.358;2022-12-05T01:49:14;41.10;;;22.75;;
72275;SDS011;61204;49.980;8.358;2022-12-05T01:51:48;19.90;;;13.55;;
72275;SDS011;61204;49.980;8.358;2022-12-05T01:54:19;51.20;;;27.40;;
72275;SDS011;61204;49.980;8.358;2022-12-05T01:56:48;24.60;;;15.60;;
72275;SDS011;61204;49.980;8.358;2022-12-05T01:59:22;24.27;;;13.52;;
72275;SDS011;61204;49.980;8.358;2022-12-05T02:01:50;22.50;;;13.27;;
72275;SDS011;61204;49.980;8.358;2022-12-05T02:04:16;22.52;;;13.25;;
72275;SDS011;61204;49.980;8.358;2022-12-05T02:06:42;24.05;;;13.80;;
72275;SDS011;61204;49.980;8.358;2022-12-05T02:09:08;19.27;;;12.52;;
72275;SDS011;61204;49.980;8.358;2022-12-05T02:11:33;19.40;;;12.75;;
72275;SDS011;61204;49.980;8.358;2022-12-05T02:14:34;21.13;;;12.52;;
72275;SDS011;61204;49.980;8.358;2022-12-05T02:20:19;19.05;;;11.93;;
72275;SDS011;61204;49.980;8.358;2022-12-05T02:38:40;19.33;;;11.35;;
72275;SDS011;61204;49.980;8.358;2022-12-05T02:44:39;17.60;;;11.10;;
72275;SDS011;61204;49.980;8.358;2022-12-05T02:47:15;18.48;;;12.32;;
72275;SDS011;61204;49.980;8.358;2022-12-05T02:49:49;23.77;;;13.13;;
72275;SDS011;61204;49.980;8.358;2022-12-05T02:52:18;25.50;;;14.65;;
72275;SDS011;61204;49.980;8.358;2022-12-05T02:54:49;22.33;;;13.27;;
72275;SDS011;61204;49.980;8.358;2022-12-05T02:57:19;27.02;;;14.23;;
72275;SDS011;61204;49.980;8.358;2022-12-05T02:59:48;23.23;;;13.85;;
72275;SDS011;61204;49.980;8.358;2022-12-05T03:02:23;23.17;;;13.75;;
72275;SDS011;61204;49.980;8.358;2022-12-05T03:08:01;22.50;;;12.90;;
72275;SDS011;61204;49.980;8.358;2022-12-05T03:10:36;18.13;;;11.93;;
72275;SDS011;61204;49.980;8.358;2022-12-05T03:13:10;20.08;;;12.10;;
72275;SDS011;61204;49.980;8.358;2022-12-05T03:16:00;22.75;;;13.20;;
72275;SDS011;61204;49.980;8.358;2022-12-05T03:18:54;19.63;;;12.88;;
72275;SDS011;61204;49.980;8.358;2022-12-05T03:24:39;22.60;;;14.48;;
72275;SDS011;61204;49.980;8.358;2022-12-05T03:27:08;26.33;;;15.63;;
72275;SDS011;61204;49.980;8.358;2022-12-05T03:29:52;27.55;;;15.45;;
72275;SDS011;61204;49.980;8.358;2022-12-05T03:35:10;26.15;;;15.65;;
72275;SDS011;61204;49.980;8.358;2022-12-05T03:40:43;23.00;;;13.93;;
72275;SDS011;61204;49.980;8.358;2022-12-05T03:49:40;29.27;;;15.30;;
72275;SDS011;61204;49.980;8.358;2022-12-05T03:55:04;31.97;;;17.40;;
72275;SDS011;61204;49.980;8.358;2022-12-05T03:57:57;36.95;;;16.15;;
72275;SDS011;61204;49.980;8.358;2022-12-05T04:00:33;28.50;;;15.68;;
72275;SDS011;61204;49.980;8.358;2022-12-05T04:03:08;31.83;;;17.00;;
72275;SDS011;61204;49.980;8.358;2022-12-05T04:05:58;28.23;;;14.90;;
72275;SDS011;61204;49.980;8.358;2022-12-05T04:08:29;38.97;;;16.45;;
72275;SDS011;61204;49.980;8.358;2022-12-05T04:11:12;28.92;;;15.23;;
72275;SDS011;61204;49.980;8.358;2022-12-05T04:17:03;35.78;;;15.60;;
72275;SDS011;61204;49.980;8.358;2022-12-05T04:22:41;28.25;;;15.85;;
72275;SDS011;61204;49.980;8.358;2022-12-05T04:25:09;30.38;;;14.55;;
72275;SDS011;61204;49.980;8.358;2022-12-05T04:28:03;28.42;;;14.82;;
72275;SDS011;61204;49.980;8.358;2022-12-05T04:36:29;30.27;;;14.82;;
72275;SDS011;61204;49.980;8.358;2022-12-05T04:39:25;34.90;;;16.58;;
72275;SDS011;61204;49.980;8.358;2022-12-05T04:42:14;32.10;;;16.42;;
72275;SDS011;61204;49.980;8.358;2022-12-05T04:44:51;31.83;;;16.70;;
72275;SDS011;61204;49.980;8.358;2022-12-05T04:47:25;36.25;;;16.38;;
72275;SDS011;61204;49.980;8.358;2022-12-05T04:50:01;32.65;;;16.52;;
72275;SDS011;61204;49.980;8.358;2022-12-05T04:52:32;29.67;;;16.02;;
72275;SDS011;61204;49.980;8.358;2022-12-05T04:55:11;30.77;;;15.52;;
72275;SDS011;61204;49.980;8.358;2022-12-05T04:57:49;34.00;;;16.83;;
72275;SDS011;61204;49.980;8.358;2022-12-05T05:00:37;29.83;;;16.88;;
72275;SDS011;61204;49.980;8.358;2022-12-05T05:06:06;44.03;;;18.92;;
72275;SDS011;61204;49.980;8.358;2022-12-05T05:08:44;34.92;;;18.75;;
72275;SDS011;61204;49.980;8.358;2022-12-05T05:11:21;35.47;;;17.92;;
72275;SDS011;61204;49.980;8.358;2022-12-05T05:13:53;39.25;;;18.77;;
72275;SDS011;61204;49.980;8.358;2022-12-05T05:16:20;39.00;;;17.67;;
72275;SDS011;61204;49.980;8.358;2022-12-05T05:18:57;39.72;;;17.73;;
72275;SDS011;61204;49.980;8.358;2022-12-05T05:21:29;40.80;;;18.20;;
72275;SDS011;61204;49.980;8.358;2022-12-05T05:24:02;41.33;;;19.58;;
72275;SDS011;61204;49.980;8.358;2022-12-05T05:26:32;35.22;;;17.42;;
72275;SDS011;61204;49.980;8.358;2022-12-05T05:29:02;39.78;;;18.73;;
72275;SDS011;61204;49.980;8.358;2022-12-05T05:31:28;37.58;;;19.02;;
72275;SDS011;61204;49.980;8.358;2022-12-05T05:33:55;39.45;;;17.50;;
72275;SDS011;61204;49.980;8.358;2022-12-05T05:36:22;37.47;;;17.30;;
72275;SDS011;61204;49.980;8.358;2022-12-05T05:38:52;35.15;;;17.70;;
72275;SDS011;61204;49.980;8.358;2022-12-05T05:41:22;33.65;;;16.50;;
72275;SDS011;61204;49.980;8.358;2022-12-05T05:43:57;39.50;;;17.52;;
72275;SDS011;61204;49.980;8.358;2022-12-05T05:46:25;37.17;;;15.93;;
72275;SDS011;61204;49.980;8.358;2022-12-05T05:48:54;32.53;;;16.33;;
72275;SDS011;61204;49.980;8.358;2022-12-05T05:51:21;33.55;;;16.20;;
72275;SDS011;61204;49.980;8.358;2022-12-05T05:53:51;35.00;;;15.80;;
72275;SDS011;61204;49.980;8.358;2022-12-05T05:56:18;33.28;;;16.30;;
72275;SDS011;61204;49.980;8.358;2022-12-05T05:58:45;35.08;;;15.88;;
72275;SDS011;61204;49.980;8.358;2022-12-05T06:03:46;31.00;;;15.43;;
72275;SDS011;61204;49.980;8.358;2022-12-05T06:06:14;33.92;;;15.23;;
72275;SDS011;61204;49.980;8.358;2022-12-05T06:08:41;26.90;;;14.18;;
72275;SDS011;61204;49.980;8.358;2022-12-05T06:11:10;32.83;;;16.08;;
72275;SDS011;61204;49.980;8.358;2022-12-05T06:13:44;29.60;;;15.55;;
72275;SDS011;61204;49.980;8.358;2022-12-05T06:16:11;28.90;;;14.48;;
72275;SDS011;61204;49.980;8.358;2022-12-05T06:18:40;31.92;;;16.00;;
72275;SDS011;61204;49.980;8.358;2022-12-05T06:21:07;31.15;;;15.38;;
72275;SDS011;61204;49.980;8.358;2022-12-05T06:23:34;32.08;;;15.88;;
72275;SDS011;61204;49.980;8.358;2022-12-05T06:26:03;28.38;;;14.50;;
72275;SDS011;61204;49.980;8.358;2022-12-05T06:28:33;25.33;;;14.73;;
72275;SDS011;61204;49.980;8.358;2022-12-05T06:30:59;31.73;;;15.98;;
72275;SDS011;61204;49.980;8.358;2022-12-05T06:33:33;24.15;;;14.93;;
72275;SDS011;61204;49.980;8.358;2022-12-05T06:36:03;31.88;;;15.45;;
72275;SDS011;61204;49.980;8.358;2022-12-05T06:38:34;31.00;;;15.20;;
72275;SDS011;61204;49.980;8.358;2022-12-05T06:41:03;30.45;;;14.63;;
72275;SDS011;61204;49.980;8.358;2022-12-05T06:43:31;32.30;;;15.27;;
72275;SDS011;61204;49.980;8.358;2022-12-05T06:45:58;29.40;;;15.05;;
72275;SDS011;61204;49.980;8.358;2022-12-05T06:48:24;29.80;;;14.90;;
72275;SDS011;61204;49.980;8.358;2022-12-05T06:50:50;29.20;;;15.13;;
72275;SDS011;61204;49.980;8.358;2022-12-05T06:53:18;27.98;;;15.63;;
72275;SDS011;61204;49.980;8.358;2022-12-05T06:55:53;27.33;;;14.75;;
72275;SDS011;61204;49.980;8.358;2022-12-05T06:58:29;35.35;;;15.65;;
72275;SDS011;61204;49.980;8.358;2022-12-05T07:00:55;29.48;;;15.48;;
72275;SDS011;61204;49.980;8.358;2022-12-05T07:03:39;26.83;;;14.38;;
72275;SDS011;61204;49.980;8.358;2022-12-05T07:06:07;32.83;;;15.50;;
72275;SDS011;61204;49.980;8.358;2022-12-05T07:08:33;31.55;;;15.63;;
72275;SDS011;61204;49.980;8.358;2022-12-05T07:11:00;33.63;;;16.70;;
72275;SDS011;61204;49.980;8.358;2022-12-05T07:13:27;36.33;;;16.90;;
72275;SDS011;61204;49.980;8.358;2022-12-05T07:15:53;32.40;;;16.35;;
72275;SDS011;61204;49.980;8.358;2022-12-05T07:18:19;33.78;;;17.33;;
72275;SDS011;61204;49.980;8.358;2022-12-05T07:20:54;32.03;;;15.82;;
72275;SDS011;61204;49.980;8.358;2022-12-05T07:23:26;37.20;;;16.45;;
72275;SDS011;61204;49.980;8.358;2022-12-05T07:25:52;28.85;;;15.40;;
72275;SDS011;61204;49.980;8.358;2022-12-05T07:28:18;32.80;;;16.92;;
72275;SDS011;61204;49.980;8.358;2022-12-05T07:30:45;35.60;;;17.02;;
72275;SDS011;61204;49.980;8.358;2022-12-05T07:33:11;34.95;;;17.02;;
72275;SDS011;61204;49.980;8.358;2022-12-05T07:35:36;30.98;;;15.68;;
72275;SDS011;61204;49.980;8.358;2022-12-05T07:38:02;34.20;;;17.40;;
72275;SDS011;61204;49.980;8.358;2022-12-05T07:40:27;34.15;;;16.23;;
72275;SDS011;61204;49.980;8.358;2022-12-05T07:42:54;35.92;;;17.20;;
72275;SDS011;61204;49.980;8.358;2022-12-05T07:45:20;33.10;;;17.25;;
72275;SDS011;61204;49.980;8.358;2022-12-05T07:47:46;32.70;;;17.15;;
72275;SDS011;61204;49.980;8.358;2022-12-05T07:50:12;31.00;;;16.27;;
72275;SDS011;61204;49.980;8.358;2022-12-05T07:52:38;30.92;;;16.90;;
72275;SDS011;61204;49.980;8.358;2022-12-05T07:55:05;34.85;;;16.90;;
72275;SDS011;61204;49.980;8.358;2022-12-05T07:57:32;32.92;;;16.83;;
72275;SDS011;61204;49.980;8.358;2022-12-05T07:59:57;28.90;;;16.63;;
72275;SDS011;61204;49.980;8.358;2022-12-05T08:02:23;28.42;;;16.10;;
72275;SDS011;61204;49.980;8.358;2022-12-05T08:04:48;29.10;;;15.90;;
72275;SDS011;61204;49.980;8.358;2022-12-05T08:07:14;30.88;;;17.17;;
72275;SDS011;61204;49.980;8.358;2022-12-05T08:09:40;32.30;;;16.52;;
72275;SDS011;61204;49.980;8.358;2022-12-05T08:12:05;33.47;;;16.65;;
72275;SDS011;61204;49.980;8.358;2022-12-05T08:14:32;33.50;;;18.27;;
72275;SDS011;61204;49.980;8.358;2022-12-05T08:16:58;34.58;;;16.40;;
72275;SDS011;61204;49.980;8.358;2022-12-05T08:19:23;36.70;;;17.10;;
72275;SDS011;61204;49.980;8.358;2022-12-05T08:21:49;35.72;;;17.17;;
72275;SDS011;61204;49.980;8.358;2022-12-05T08:24:16;35.55;;;17.02;;
72275;SDS011;61204;49.980;8.358;2022-12-05T08:26:41;36.28;;;16.55;;
72275;SDS011;61204;49.980;8.358;2022-12-05T08:29:08;35.15;;;16.98;;
72275;SDS011;61204;49.980;8.358;2022-12-05T08:31:39;34.53;;;16.73;;
72275;SDS011;61204;49.980;8.358;2022-12-05T08:34:13;36.17;;;17.33;;
72275;SDS011;61204;49.980;8.358;2022-12-05T08:36:40;35.88;;;16.88;;
72275;SDS011;61204;49.980;8.358;2022-12-05T08:39:07;42.75;;;18.23;;
72275;SDS011;61204;49.980;8.358;2022-12-05T08:41:41;39.10;;;17.70;;
72275;SDS011;61204;49.980;8.358;2022-12-05T08:44:09;35.10;;;17.85;;
72275;SDS011;61204;49.980;8.358;2022-12-05T08:46:40;34.17;;;18.05;;
72275;SDS011;61204;49.980;8.358;2022-12-05T08:49:09;37.15;;;17.38;;
72275;SDS011;61204;49.980;8.358;2022-12-05T08:51:36;35.20;;;17.30;;
72275;SDS011;61204;49.980;8.358;2022-12-05T08:54:02;34.38;;;17.60;;
72275;SDS011;61204;49.980;8.358;2022-12-05T08:56:29;34.67;;;18.50;;
72275;SDS011;61204;49.980;8.358;2022-12-05T08:58:57;33.80;;;18.23;;
72275;SDS011;61204;49.980;8.358;2022-12-05T09:01:23;33.58;;;16.23;;
72275;SDS011;61204;49.980;8.358;2022-12-05T09:03:54;36.95;;;18.02;;
72275;SDS011;61204;49.980;8.358;2022-12-05T09:06:21;36.85;;;18.58;;
72275;SDS011;61204;49.980;8.358;2022-12-05T09:08:54;37.28;;;18.42;;
72275;SDS011;61204;49.980;8.358;2022-12-05T09:11:25;34.75;;;17.55;;
72275;SDS011;61204;49.980;8.358;2022-12-05T09:13:56;32.47;;;17.80;;
72275;SDS011;61204;49.980;8.358;2022-12-05T09:16:25;33.47;;;17.77;;
72275;SDS011;61204;49.980;8.358;2022-12-05T09:18:56;37.90;;;17.80;;
72275;SDS011;61204;49.980;8.358;2022-12-05T09:21:28;34.50;;;17.45;;
72275;SDS011;61204;49.980;8.358;2022-12-05T09:23:59;29.77;;;16.85;;
72275;SDS011;61204;49.980;8.358;2022-12-05T09:26:26;32.60;;;18.73;;
72275;SDS011;61204;49.980;8.358;2022-12-05T09:28:54;31.33;;;17.73;;
72275;SDS011;61204;49.980;8.358;2022-12-05T09:31:21;34.22;;;17.35;;
72275;SDS011;61204;49.980;8.358;2022-12-05T09:33:51;30.45;;;16.95;;
72275;SDS011;61204;49.980;8.358;2022-12-05T09:36:19;29.48;;;16.70;;
72275;SDS011;61204;49.980;8.358;2022-12-05T09:38:52;34.92;;;17.17;;
72275;SDS011;61204;49.980;8.358;2022-12-05T09:41:46;32.53;;;17.63;;
72275;SDS011;61204;49.980;8.358;2022-12-05T09:50:44;32.53;;;17.15;;
72275;SDS011;61204;49.980;8.358;2022-12-05T09:53:23;38.35;;;20.35;;
72275;SDS011;61204;49.980;8.358;2022-12-05T09:58:52;29.58;;;15.63;;
72275;SDS011;61204;49.980;8.358;2022-12-05T10:04:11;33.17;;;16.17;;
72275;SDS011;61204;49.980;8.358;2022-12-05T10:10:40;32.95;;;16.52;;
72275;SDS011;61204;49.980;8.358;2022-12-05T10:13:47;26.73;;;15.57;;
72275;SDS011;61204;49.980;8.358;2022-12-05T10:16:53;30.83;;;16.83;;
72275;SDS011;61204;49.980;8.358;2022-12-05T10:19:47;28.20;;;15.68;;
72275;SDS011;61204;49.980;8.358;2022-12-05T10:22:32;28.50;;;14.68;;
72275;SDS011;61204;49.980;8.358;2022-12-05T10:25:20;27.15;;;16.52;;
72275;SDS011;61204;49.980;8.358;2022-12-05T10:27:51;25.58;;;15.27;;
72275;SDS011;61204;49.980;8.358;2022-12-05T10:30:23;26.52;;;14.95;;
72275;SDS011;61204;49.980;8.358;2022-12-05T10:32:55;26.52;;;13.73;;
72275;SDS011;61204;49.980;8.358;2022-12-05T10:35:42;24.63;;;14.70;;
72275;SDS011;61204;49.980;8.358;2022-12-05T10:38:51;25.05;;;13.40;;
72275;SDS011;61204;49.980;8.358;2022-12-05T10:40:58;23.67;;;13.77;;
72275;SDS011;61204;49.980;8.358;2022-12-05T10:43:31;24.98;;;13.93;;
72275;SDS011;61204;49.980;8.358;2022-12-05T10:46:02;22.88;;;13.75;;
72275;SDS011;61204;49.980;8.358;2022-12-05T10:48:29;20.92;;;12.80;;
72275;SDS011;61204;49.980;8.358;2022-12-05T10:51:02;23.25;;;13.95;;
72275;SDS011;61204;49.980;8.358;2022-12-05T10:53:41;27.13;;;14.27;;
72275;SDS011;61204;49.980;8.358;2022-12-05T10:59:11;21.83;;;12.93;;
72275;SDS011;61204;49.980;8.358;2022-12-05T11:01:46;24.08;;;14.60;;
72275;SDS011;61204;49.980;8.358;2022-12-05T11:04:19;26.58;;;13.77;;
72275;SDS011;61204;49.980;8.358;2022-12-05T11:06:50;24.98;;;13.15;;
72275;SDS011;61204;49.980;8.358;2022-12-05T11:09:36;20.27;;;12.52;;
72275;SDS011;61204;49.980;8.358;2022-12-05T11:14:58;22.15;;;13.07;;
72275;SDS011;61204;49.980;8.358;2022-12-05T11:17:49;20.17;;;12.13;;
72275;SDS011;61204;49.980;8.358;2022-12-05T11:22:44;23.90;;;13.18;;
72275;SDS011;61204;49.980;8.358;2022-12-05T11:25:24;21.70;;;13.00;;
72275;SDS011;61204;49.980;8.358;2022-12-05T11:27:56;21.02;;;12.43;;
72275;SDS011;61204;49.980;8.358;2022-12-05T11:36:47;19.42;;;11.27;;
72275;SDS011;61204;49.980;8.358;2022-12-05T11:39:22;19.75;;;11.02;;
72275;SDS011;61204;49.980;8.358;2022-12-05T11:51:38;21.35;;;11.40;;
72275;SDS011;61204;49.980;8.358;2022-12-05T11:54:30;16.65;;;11.13;;
72275;SDS011;61204;49.980;8.358;2022-12-05T11:57:25;21.20;;;11.52;;
72275;SDS011;61204;49.980;8.358;2022-12-05T12:00:35;17.90;;;11.73;;
72275;SDS011;61204;49.980;8.358;2022-12-05T12:06:25;21.60;;;11.77;;
72275;SDS011;61204;49.980;8.358;2022-12-05T12:09:46;20.60;;;11.45;;
72275;SDS011;61204;49.980;8.358;2022-12-05T12:18:46;22.05;;;12.45;;
72275;SDS011;61204;49.980;8.358;2022-12-05T12:21:58;23.02;;;11.68;;
72275;SDS011;61204;49.980;8.358;2022-12-05T12:25:19;21.17;;;12.23;;
72275;SDS011;61204;49.980;8.358;2022-12-05T12:31:15;21.40;;;13.05;;
72275;SDS011;61204;49.980;8.358;2022-12-05T12:34:20;19.85;;;12.07;;
72275;SDS011;61204;49.980;8.358;2022-12-05T12:37:20;19.45;;;12.15;;
72275;SDS011;61204;49.980;8.358;2022-12-05T12:40:13;20.63;;;12.23;;
72275;SDS011;61204;49.980;8.358;2022-12-05T12:52:49;23.88;;;12.32;;
72275;SDS011;61204;49.980;8.358;2022-12-05T13:02:28;22.38;;;13.00;;
72275;SDS011;61204;49.980;8.358;2022-12-05T13:10:59;23.30;;;13.32;;
72275;SDS011;61204;49.980;8.358;2022-12-05T13:13:35;27.33;;;13.90;;
72275;SDS011;61204;49.980;8.358;2022-12-05T13:16:12;29.50;;;13.60;;
72275;SDS011;61204;49.980;8.358;2022-12-05T13:18:53;24.88;;;14.88;;
72275;SDS011;61204;49.980;8.358;2022-12-05T13:21:21;30.58;;;16.33;;
72275;SDS011;61204;49.980;8.358;2022-12-05T13:23:51;32.30;;;16.65;;
72275;SDS011;61204;49.980;8.358;2022-12-05T13:26:27;29.88;;;14.93;;
72275;SDS011;61204;49.980;8.358;2022-12-05T13:28:57;32.72;;;16.48;;
72275;SDS011;61204;49.980;8.358;2022-12-05T13:31:40;34.05;;;15.70;;
72275;SDS011;61204;49.980;8.358;2022-12-05T13:36:57;36.50;;;16.10;;
72275;SDS011;61204;49.980;8.358;2022-12-05T13:42:40;34.38;;;15.95;;
72275;SDS011;61204;49.980;8.358;2022-12-05T13:45:14;36.92;;;16.23;;
72275;SDS011;61204;49.980;8.358;2022-12-05T13:47:57;33.17;;;16.00;;
72275;SDS011;61204;49.980;8.358;2022-12-05T13:50:58;30.77;;;15.85;;
72275;SDS011;61204;49.980;8.358;2022-12-05T13:53:56;38.30;;;17.30;;
72275;SDS011;61204;49.980;8.358;2022-12-05T13:56:56;34.38;;;16.08;;
72275;SDS011;61204;49.980;8.358;2022-12-05T14:07:49;41.43;;;17.40;;
72275;SDS011;61204;49.980;8.358;2022-12-05T14:12:58;31.95;;;16.63;;
72275;SDS011;61204;49.980;8.358;2022-12-05T14:15:48;33.38;;;15.55;;
72275;SDS011;61204;49.980;8.358;2022-12-05T14:24:41;35.67;;;17.13;;
72275;SDS011;61204;49.980;8.358;2022-12-05T14:31:20;35.75;;;16.52;;
72275;SDS011;61204;49.980;8.358;2022-12-05T14:36:55;35.33;;;17.15;;
72275;SDS011;61204;49.980;8.358;2022-12-05T14:39:33;36.78;;;16.95;;
72275;SDS011;61204;49.980;8.358;2022-12-05T14:42:18;38.72;;;17.52;;
72275;SDS011;61204;49.980;8.358;2022-12-05T14:48:36;44.75;;;17.25;;
72275;SDS011;61204;49.980;8.358;2022-12-05T14:54:13;39.95;;;17.63;;
72275;SDS011;61204;49.980;8.358;2022-12-05T14:56:43;39.17;;;17.42;;
72275;SDS011;61204;49.980;8.358;2022-12-05T14:59:27;43.63;;;17.50;;
72275;SDS011;61204;49.980;8.358;2022-12-05T15:02:13;41.22;;;19.00;;
72275;SDS011;61204;49.980;8.358;2022-12-05T15:05:02;46.03;;;18.25;;
72275;SDS011;61204;49.980;8.358;2022-12-05T15:07:48;41.67;;;18.00;;
72275;SDS011;61204;49.980;8.358;2022-12-05T15:10:35;38.78;;;18.48;;
72275;SDS011;61204;49.980;8.358;2022-12-05T15:13:07;41.20;;;17.23;;
72275;SDS011;61204;49.980;8.358;2022-12-05T15:15:45;43.75;;;17.15;;
72275;SDS011;61204;49.980;8.358;2022-12-05T15:21:37;47.20;;;19.33;;
72275;SDS011;61204;49.980;8.358;2022-12-05T15:24:15;42.42;;;18.02;;
72275;SDS011;61204;49.980;8.358;2022-12-05T15:26:56;44.78;;;18.80;;
72275;SDS011;61204;49.980;8.358;2022-12-05T15:29:27;48.40;;;18.98;;
72275;SDS011;61204;49.980;8.358;2022-12-05T15:32:00;45.80;;;17.92;;
72275;SDS011;61204;49.980;8.358;2022-12-05T15:40:00;42.63;;;17.83;;
72275;SDS011;61204;49.980;8.358;2022-12-05T15:42:42;37.35;;;17.73;;
72275;SDS011;61204;49.980;8.358;2022-12-05T15:47:47;40.50;;;18.40;;
72275;SDS011;61204;49.980;8.358;2022-12-05T15:53:14;47.40;;;19.02;;
72275;SDS011;61204;49.980;8.358;2022-12-05T15:59:24;36.58;;;16.58;;
72275;SDS011;61204;49.980;8.358;2022-12-05T16:02:16;40.40;;;18.27;;
72275;SDS011;61204;49.980;8.358;2022-12-05T16:04:55;38.10;;;17.65;;
72275;SDS011;61204;49.980;8.358;2022-12-05T16:07:24;45.13;;;19.35;;
72275;SDS011;61204;49.980;8.358;2022-12-05T16:09:58;35.90;;;16.75;;
72275;SDS011;61204;49.980;8.358;2022-12-05T16:12:33;36.38;;;17.08;;
72275;SDS011;61204;49.980;8.358;2022-12-05T16:17:57;41.00;;;18.42;;
72275;SDS011;61204;49.980;8.358;2022-12-05T16:23:02;47.13;;;19.25;;
72275;SDS011;61204;49.980;8.358;2022-12-05T16:25:48;40.45;;;17.38;;
72275;SDS011;61204;49.980;8.358;2022-12-05T16:28:16;42.70;;;19.00;;
72275;SDS011;61204;49.980;8.358;2022-12-05T16:31:01;42.55;;;19.05;;
72275;SDS011;61204;49.980;8.358;2022-12-05T16:33:30;37.72;;;18.50;;
72275;SDS011;61204;49.980;8.358;2022-12-05T16:36:09;41.55;;;18.02;;
72275;SDS011;61204;49.980;8.358;2022-12-05T16:38:37;36.40;;;17.27;;
72275;SDS011;61204;49.980;8.358;2022-12-05T16:41:07;33.00;;;16.83;;
72275;SDS011;61204;49.980;8.358;2022-12-05T16:48:39;39.33;;;17.80;;
72275;SDS011;61204;49.980;8.358;2022-12-05T16:51:18;40.50;;;17.70;;
72275;SDS011;61204;49.980;8.358;2022-12-05T16:53:52;43.65;;;19.17;;
72275;SDS011;61204;49.980;8.358;2022-12-05T16:56:30;41.47;;;18.08;;
72275;SDS011;61204;49.980;8.358;2022-12-05T16:59:01;34.40;;;17.17;;
72275;SDS011;61204;49.980;8.358;2022-12-05T17:01:30;34.38;;;17.80;;
72275;SDS011;61204;49.980;8.358;2022-12-05T17:03:57;38.55;;;19.25;;
72275;SDS011;61204;49.980;8.358;2022-12-05T17:06:24;41.22;;;19.02;;
72275;SDS011;61204;49.980;8.358;2022-12-05T17:08:51;32.58;;;17.40;;
72275;SDS011;61204;49.980;8.358;2022-12-05T17:11:20;38.40;;;18.20;;
72275;SDS011;61204;49.980;8.358;2022-12-05T17:13:55;40.25;;;18.10;;
72275;SDS011;61204;49.980;8.358;2022-12-05T17:16:22;34.00;;;18.10;;
72275;SDS011;61204;49.980;8.358;2022-12-05T17:18:50;35.65;;;17.52;;
72275;SDS011;61204;49.980;8.358;2022-12-05T17:21:20;37.15;;;18.17;;
72275;SDS011;61204;49.980;8.358;2022-12-05T17:23:53;33.42;;;17.23;;
72275;SDS011;61204;49.980;8.358;2022-12-05T17:26:20;41.80;;;18.80;;
72275;SDS011;61204;49.980;8.358;2022-12-05T17:28:47;36.92;;;18.38;;
72275;SDS011;61204;49.980;8.358;2022-12-05T17:31:14;44.88;;;17.60;;
72275;SDS011;61204;49.980;8.358;2022-12-05T17:33:44;37.42;;;18.50;;
72275;SDS011;61204;49.980;8.358;2022-12-05T17:36:12;37.08;;;18.38;;
72275;SDS011;61204;49.980;8.358;2022-12-05T17:38:39;34.53;;;19.33;;
72275;SDS011;61204;49.980;8.358;2022-12-05T17:41:05;36.78;;;17.35;;
72275;SDS011;61204;49.980;8.358;2022-12-05T17:43:31;33.47;;;17.98;;
72275;SDS011;61204;49.980;8.358;2022-12-05T17:45:58;34.58;;;17.70;;
72275;SDS011;61204;49.980;8.358;2022-12-05T17:48:25;35.40;;;17.10;;
72275;SDS011;61204;49.980;8.358;2022-12-05T17:50:50;33.08;;;17.60;;
72275;SDS011;61204;49.980;8.358;2022-12-05T17:53:18;38.67;;;16.63;;
72275;SDS011;61204;49.980;8.358;2022-12-05T17:55:45;33.25;;;16.65;;
72275;SDS011;61204;49.980;8.358;2022-12-05T17:58:15;37.03;;;16.48;;
72275;SDS011;61204;49.980;8.358;2022-12-05T18:00:42;28.40;;;15.57;;
72275;SDS011;61204;49.980;8.358;2022-12-05T18:03:11;33.28;;;15.35;;
72275;SDS011;61204;49.980;8.358;2022-12-05T18:05:40;31.33;;;15.75;;
72275;SDS011;61204;49.980;8.358;2022-12-05T18:08:06;34.47;;;15.85;;
72275;SDS011;61204;49.980;8.358;2022-12-05T18:10:34;25.92;;;14.05;;
72275;SDS011;61204;49.980;8.358;2022-12-05T18:12:59;27.08;;;14.57;;
72275;SDS011;61204;49.980;8.358;2022-12-05T18:15:25;24.95;;;13.07;;
72275;SDS011;61204;49.980;8.358;2022-12-05T18:17:51;19.30;;;11.02;;
72275;SDS011;61204;49.980;8.358;2022-12-05T18:20:16;15.45;;;9.13;;
72275;SDS011;61204;49.980;8.358;2022-12-05T18:22:42;16.30;;;9.93;;
72275;SDS011;61204;49.980;8.358;2022-12-05T18:25:08;14.93;;;9.63;;